ENT4004 HESH-EPKT

Flight info

Callsign ENT4004
Flight time N/A
Altitude 30000
Route NOVPA2L NOVPA J981 DATOK L550 GENIV L324 LAKTO DCT OTHON DCT VAXOS DCT RDS/N0449F320 UL609 MES DCT ATFIR DCT LOMOS DCT KARIL DCT KENIN DCT LENOV
Aircraft B738/M-SDE2E3FGHIRWXY/LB1

Departure

Time 2026-05-07 19:51
Airport Sharm El Sheikh International Airport (HESH)

Arrival

Time N/A
Airport Katowice Wojciech Korfanty International Airport (EPKT)
Time Latitude Longitude Altitude Speed Heading
2026-05-07 19:30 27.97826 34.38824 171 ft 0 kts 313°
2026-05-07 19:43 27.97817 34.38835 171 ft 4 kts 313°
2026-05-07 19:43 27.97798 34.38857 171 ft 4 kts 313°
2026-05-07 19:43 27.97782 34.38877 171 ft 4 kts 310°
2026-05-07 19:43 27.97771 34.38900 171 ft 4 kts 255°
2026-05-07 19:44 27.97784 34.38923 171 ft 3 kts 222°
2026-05-07 19:44 27.97790 34.38928 171 ft 0 kts 222°
2026-05-07 19:46 27.97789 34.38928 171 ft 0 kts 222°
2026-05-07 19:46 27.97777 34.38915 171 ft 7 kts 222°
2026-05-07 19:47 27.97718 34.38854 171 ft 16 kts 223°
2026-05-07 19:47 27.97617 34.38749 171 ft 21 kts 223°
2026-05-07 19:47 27.97511 34.38639 171 ft 20 kts 222°
2026-05-07 19:47 27.97408 34.38531 171 ft 20 kts 223°
2026-05-07 19:48 27.97310 34.38428 171 ft 19 kts 223°
2026-05-07 19:48 27.97213 34.38328 171 ft 19 kts 223°
2026-05-07 19:48 27.97119 34.38231 171 ft 18 kts 221°
2026-05-07 19:48 27.97030 34.38139 171 ft 9 kts 223°
2026-05-07 19:49 27.96977 34.38137 172 ft 8 kts 146°
2026-05-07 19:49 27.96948 34.38168 173 ft 0 kts 134°
2026-05-07 19:49 27.96945 34.38172 173 ft 2 kts 134°
2026-05-07 19:49 27.96919 34.38202 172 ft 9 kts 134°
2026-05-07 19:50 27.96879 34.38269 172 ft 8 kts 90°
2026-05-07 19:50 27.96902 34.38307 172 ft 3 kts 42°
2026-05-07 19:50 27.96913 34.38319 172 ft 5 kts 43°
2026-05-07 19:50 27.97048 34.38459 174 ft 59 kts 43°
2026-05-07 19:51 27.97520 34.38950 172 ft 123 kts 43°
2026-05-07 19:51 27.98290 34.39740 205 ft 172 kts 41°
2026-05-07 19:51 27.99168 34.40669 814 ft 174 kts 40°
2026-05-07 19:51 28.00240 34.41226 1461 ft 178 kts 359°
2026-05-07 19:52 28.01551 34.41075 1791 ft 203 kts
2026-05-07 19:52 28.02915 34.41649 2023 ft 222 kts 35°
2026-05-07 19:52 28.04136 34.42727 2624 ft 220 kts 35°
2026-05-07 19:52 28.05432 34.43723 3030 ft 236 kts 30°
2026-05-07 19:53 28.06928 34.44715 3347 ft 256 kts 28°
2026-05-07 19:53 28.08488 34.45689 4122 ft 256 kts 27°
2026-05-07 19:53 28.10084 34.46650 4783 ft 263 kts 27°
2026-05-07 19:53 28.11716 34.47614 5489 ft 267 kts 27°
2026-05-07 19:54 28.13468 34.48357 6112 ft 274 kts
2026-05-07 19:54 28.15387 34.48418 6778 ft 279 kts
2026-05-07 19:54 28.17343 34.48434 7433 ft 282 kts
2026-05-07 19:54 28.19291 34.48457 8119 ft 284 kts
2026-05-07 19:55 28.21275 34.48485 8833 ft 287 kts
2026-05-07 19:55 28.23275 34.48546 9546 ft 289 kts
2026-05-07 19:55 28.25280 34.48892 10195 ft 293 kts 10°
2026-05-07 19:55 28.27338 34.49377 10442 ft 313 kts 11°
2026-05-07 19:56 28.29544 34.49926 10603 ft 334 kts 11°
2026-05-07 19:56 28.31878 34.50502 10773 ft 352 kts 11°
2026-05-07 19:56 28.34321 34.51095 11129 ft 362 kts 11°
2026-05-07 19:56 28.36777 34.51681 11654 ft 367 kts 10°
2026-05-07 19:57 28.39284 34.52272 12282 ft 369 kts 10°
2026-05-07 19:57 28.41816 34.52862 12873 ft 373 kts 10°
2026-05-07 19:57 28.44367 34.53453 13479 ft 376 kts
2026-05-07 19:57 28.46951 34.54051 14055 ft 380 kts
2026-05-07 19:58 28.49551 34.54651 14669 ft 382 kts
2026-05-07 19:58 28.52162 34.55254 15300 ft 383 kts
2026-05-07 19:58 28.54781 34.55860 15938 ft 385 kts
2026-05-07 19:58 28.57412 34.56468 16569 ft 387 kts
2026-05-07 19:59 28.60038 34.57075 17149 ft 390 kts
2026-05-07 19:59 28.62705 34.57692 17767 ft 392 kts
2026-05-07 19:59 28.65390 34.58313 18332 ft 395 kts
2026-05-07 19:59 28.68099 34.58940 18832 ft 398 kts
2026-05-07 20:00 28.70813 34.59570 19391 ft 398 kts
2026-05-07 20:00 28.73532 34.60200 19976 ft 400 kts
2026-05-07 20:00 28.76281 34.60838 20473 ft 403 kts
2026-05-07 20:00 28.79020 34.61475 21167 ft 400 kts
2026-05-07 20:01 28.81715 34.62102 21654 ft 403 kts 10°
2026-05-07 20:01 28.84482 34.62743 22057 ft 407 kts 10°
2026-05-07 20:01 28.87272 34.63391 22052 ft 410 kts
2026-05-07 20:01 28.90067 34.64042 22062 ft 410 kts
2026-05-07 20:02 28.92900 34.64344 22366 ft 409 kts 356°
2026-05-07 20:02 28.95692 34.63794 22932 ft 407 kts 343°
2026-05-07 20:02 28.98334 34.62602 23411 ft 410 kts 332°
2026-05-07 20:02 29.00860 34.61030 23673 ft 417 kts 331°
2026-05-07 20:03 29.03416 34.59397 23988 ft 421 kts 331°
2026-05-07 20:03 29.05972 34.57758 24431 ft 422 kts 331°
2026-05-07 20:03 29.08539 34.56123 24864 ft 422 kts 331°
2026-05-07 20:03 29.11119 34.54490 25259 ft 424 kts 331°
2026-05-07 20:04 29.13712 34.52859 25618 ft 426 kts 331°
2026-05-07 20:04 29.15441 34.51774 25875 ft 428 kts 331°
2026-05-07 20:04 29.18062 34.50132 26238 ft 430 kts 331°
2026-05-07 20:04 29.21555 34.47945 26704 ft 432 kts 331°
2026-05-07 20:05 29.24202 34.46287 27079 ft 433 kts 331°
2026-05-07 20:05 29.26848 34.44629 27470 ft 434 kts 331°
2026-05-07 20:05 29.28606 34.43527 27762 ft 434 kts 331°
2026-05-07 20:05 29.31253 34.41866 28302 ft 431 kts 331°
2026-05-07 20:06 29.33869 34.40223 28869 ft 427 kts 331°
2026-05-07 20:06 29.37315 34.38057 29500 ft 426 kts 331°
2026-05-07 20:06 29.39073 34.36952 29786 ft 425 kts 331°
2026-05-07 20:06 29.41668 34.35319 30210 ft 424 kts 331°
2026-05-07 20:07 29.44222 34.33711 30598 ft 423 kts 331°
2026-05-07 20:07 29.46798 34.32088 30962 ft 422 kts 331°
2026-05-07 20:07 29.49376 34.30463 31304 ft 422 kts 331°
2026-05-07 20:07 29.51952 34.28839 31661 ft 421 kts 331°
2026-05-07 20:08 29.54522 34.27216 32013 ft 421 kts 331°
2026-05-07 20:08 29.57101 34.25588 32051 ft 426 kts 331°
2026-05-07 20:08 29.62294 34.22320 32066 ft 422 kts 331°
2026-05-07 20:09 29.67423 34.19199 32073 ft 413 kts 332°
2026-05-07 20:10 29.75008 34.14611 32080 ft 412 kts 332°
2026-05-07 20:10 29.80078 34.11528 32079 ft 411 kts 332°
2026-05-07 20:11 29.85145 34.08438 32085 ft 412 kts 332°
2026-05-07 20:11 29.90225 34.05335 32089 ft 413 kts 332°
2026-05-07 20:12 29.95315 34.02222 32083 ft 414 kts 332°
2026-05-07 20:12 30.00389 33.99116 32088 ft 415 kts 332°
2026-05-07 20:13 30.05487 33.95990 32089 ft 415 kts 332°
2026-05-07 20:13 30.10592 33.92857 32098 ft 415 kts 332°
2026-05-07 20:14 30.15678 33.89732 32092 ft 414 kts 332°
2026-05-07 20:14 30.20750 33.86613 32098 ft 412 kts 332°
2026-05-07 20:15 30.25799 33.83503 32098 ft 410 kts 332°
2026-05-07 20:15 30.30826 33.80404 32099 ft 408 kts 332°
2026-05-07 20:16 30.35835 33.77312 32104 ft 407 kts 332°
2026-05-07 20:16 30.40800 33.74244 32106 ft 407 kts 332°
2026-05-07 20:17 30.45798 33.71151 32115 ft 407 kts 332°
2026-05-07 20:17 30.50792 33.68057 32116 ft 407 kts 332°
2026-05-07 20:18 30.55783 33.64962 32110 ft 407 kts 332°
2026-05-07 20:18 30.60779 33.61860 32112 ft 407 kts 332°
2026-05-07 20:19 30.65739 33.58776 32115 ft 406 kts 332°
2026-05-07 20:19 30.70717 33.55678 32114 ft 406 kts 332°
2026-05-07 20:20 30.75696 33.52575 32120 ft 406 kts 332°
2026-05-07 20:20 30.80673 33.49471 32109 ft 406 kts 332°
2026-05-07 20:21 30.85648 33.46363 32114 ft 405 kts 332°
2026-05-07 20:21 30.90578 33.43280 32115 ft 404 kts 332°
2026-05-07 20:22 30.95544 33.40171 32108 ft 404 kts 332°
2026-05-07 20:22 31.00496 33.37067 32116 ft 404 kts 332°
2026-05-07 20:23 31.05441 33.33963 32115 ft 404 kts 332°
2026-05-07 20:23 31.10388 33.30855 32111 ft 403 kts 332°
2026-05-07 20:24 31.15334 33.27744 32112 ft 403 kts 332°
2026-05-07 20:24 31.20244 33.24651 32111 ft 403 kts 332°
2026-05-07 20:25 31.25186 33.21534 32115 ft 403 kts 332°
2026-05-07 20:25 31.30125 33.18416 32114 ft 403 kts 332°
2026-05-07 20:26 31.35134 33.15459 32099 ft 403 kts 340°
2026-05-07 20:26 31.40597 33.14006 32107 ft 405 kts 354°
2026-05-07 20:27 31.46239 33.13734 32110 ft 406 kts 356°
2026-05-07 20:27 31.51855 33.13500 32114 ft 406 kts 356°
2026-05-07 20:28 31.57510 33.13232 32122 ft 407 kts 355°
2026-05-07 20:28 31.63176 33.12948 32117 ft 407 kts 355°
2026-05-07 20:29 31.68837 33.12662 32121 ft 407 kts 355°
2026-05-07 20:29 31.74505 33.12377 32119 ft 407 kts 355°
2026-05-07 20:30 31.80011 33.11256 32142 ft 403 kts 336°
2026-05-07 20:30 31.84624 33.07573 32120 ft 405 kts 315°
2026-05-07 20:31 31.86642 33.05057 32125 ft 405 kts 315°
2026-05-07 20:31 31.90483 33.00191 32121 ft 406 kts 315°
2026-05-07 20:32 31.94345 32.95325 32119 ft 406 kts 315°
2026-05-07 20:32 31.98185 32.90519 32120 ft 406 kts 315°
2026-05-07 20:33 32.02060 32.85680 32120 ft 406 kts 315°
2026-05-07 20:33 32.05934 32.80839 32129 ft 406 kts 315°
2026-05-07 20:34 32.09815 32.75982 32130 ft 406 kts 315°
2026-05-07 20:34 32.13688 32.71130 32128 ft 406 kts 315°
2026-05-07 20:35 32.17542 32.66295 32131 ft 407 kts 315°
2026-05-07 20:35 32.21427 32.61413 32124 ft 407 kts 314°
2026-05-07 20:36 32.25302 32.56538 32127 ft 407 kts 314°
2026-05-07 20:36 32.29175 32.51658 32128 ft 407 kts 314°
2026-05-07 20:37 32.33047 32.46774 32135 ft 407 kts 314°
2026-05-07 20:37 32.36918 32.41883 32133 ft 407 kts 314°
2026-05-07 20:38 32.40762 32.37021 32136 ft 407 kts 314°
2026-05-07 20:38 32.44628 32.32124 32134 ft 406 kts 314°
2026-05-07 20:39 32.48480 32.27239 32134 ft 405 kts 314°
2026-05-07 20:39 32.52325 32.22355 32140 ft 405 kts 314°
2026-05-07 20:40 32.56166 32.17470 32138 ft 404 kts 314°
2026-05-07 20:40 32.59995 32.12593 32139 ft 404 kts 314°
2026-05-07 20:41 32.63813 32.07763 32135 ft 403 kts 316°
2026-05-07 20:41 32.67868 32.03168 32133 ft 402 kts 318°
2026-05-07 20:42 32.71981 31.98673 32135 ft 400 kts 318°
2026-05-07 20:42 32.76033 31.94214 32137 ft 399 kts 318°
2026-05-07 20:43 32.80085 31.89720 32137 ft 398 kts 317°
2026-05-07 20:43 32.84120 31.85224 32141 ft 397 kts 317°
2026-05-07 20:44 32.88148 31.80726 32145 ft 397 kts 317°
2026-05-07 20:44 32.92156 31.76244 32144 ft 396 kts 317°
2026-05-07 20:45 32.96160 31.71761 32144 ft 394 kts 318°
2026-05-07 20:45 33.00139 31.67301 32143 ft 392 kts 317°
2026-05-07 20:46 33.04103 31.62851 32146 ft 390 kts 317°
2026-05-07 20:46 33.08040 31.58426 32149 ft 388 kts 317°
2026-05-07 20:47 33.11969 31.54004 32149 ft 388 kts 317°
2026-05-07 20:47 33.15862 31.49618 32158 ft 387 kts 318°
2026-05-07 20:48 33.19769 31.45210 32156 ft 386 kts 317°
2026-05-07 20:48 33.23666 31.40807 32151 ft 385 kts 317°
2026-05-07 20:49 33.27566 31.36396 32154 ft 385 kts 317°
2026-05-07 20:49 33.31446 31.32002 32154 ft 384 kts 317°
2026-05-07 20:50 33.35298 31.27632 32154 ft 384 kts 317°
2026-05-07 20:50 33.39177 31.23228 32149 ft 384 kts 317°
2026-05-07 20:51 33.43058 31.18816 32157 ft 384 kts 317°
2026-05-07 20:51 33.46934 31.14402 32160 ft 385 kts 317°
2026-05-07 20:52 33.50817 31.09975 32161 ft 385 kts 317°
2026-05-07 20:52 33.54704 31.05538 32165 ft 386 kts 316°
2026-05-07 20:53 33.58593 31.01094 32163 ft 386 kts 316°
2026-05-07 20:53 33.62461 30.96667 32160 ft 387 kts 316°
2026-05-07 20:54 33.66358 30.92201 32164 ft 387 kts 316°
2026-05-07 20:54 33.69589 30.88494 32159 ft 386 kts 316°
2026-05-07 20:55 33.73480 30.84024 32164 ft 386 kts 316°
2026-05-07 20:55 33.77361 30.79559 32162 ft 385 kts 316°
2026-05-07 20:56 33.81232 30.75100 32155 ft 385 kts 316°
2026-05-07 20:56 33.85071 30.70673 32172 ft 384 kts 316°
2026-05-07 20:57 33.88933 30.66213 32161 ft 385 kts 316°
2026-05-07 20:57 33.92796 30.61746 32155 ft 385 kts 316°
2026-05-07 20:58 33.96664 30.57268 32154 ft 385 kts 316°
2026-05-07 20:58 34.00532 30.52784 32162 ft 386 kts 316°
2026-05-07 20:59 34.04402 30.48291 32164 ft 386 kts 316°
2026-05-07 20:59 34.08249 30.43819 32164 ft 387 kts 316°
2026-05-07 21:00 34.12126 30.39305 32141 ft 387 kts 316°
2026-05-07 21:00 34.16002 30.34787 32155 ft 386 kts 316°
2026-05-07 21:01 34.19830 30.30319 32164 ft 384 kts 316°
2026-05-07 21:01 34.23662 30.25840 32156 ft 382 kts 316°
2026-05-07 21:02 34.27481 30.21370 32165 ft 381 kts 316°
2026-05-07 21:02 34.31278 30.16920 32155 ft 379 kts 316°
2026-05-07 21:03 34.35065 30.12476 32156 ft 379 kts 316°
2026-05-07 21:03 34.38818 30.08066 32158 ft 378 kts 316°
2026-05-07 21:04 34.42586 30.03632 32159 ft 376 kts 316°
2026-05-07 21:04 34.46324 29.99221 32155 ft 375 kts 316°
2026-05-07 21:05 34.49987 29.94737 32156 ft 374 kts 315°
2026-05-07 21:05 34.53621 29.90238 32158 ft 373 kts 315°
2026-05-07 21:06 34.57254 29.85745 32155 ft 373 kts 315°
2026-05-07 21:06 34.60868 29.81279 32149 ft 372 kts 316°
2026-05-07 21:07 34.64490 29.76800 32151 ft 371 kts 316°
2026-05-07 21:07 34.68101 29.72329 32154 ft 370 kts 316°
2026-05-07 21:08 34.71706 29.67861 32154 ft 369 kts 316°
2026-05-07 21:08 34.75297 29.63403 32155 ft 368 kts 316°
2026-05-07 21:09 34.78879 29.58951 32156 ft 368 kts 316°
2026-05-07 21:09 34.82444 29.54514 32158 ft 368 kts 316°
2026-05-07 21:10 34.86026 29.50050 32160 ft 368 kts 316°
2026-05-07 21:10 34.89596 29.45595 32154 ft 367 kts 316°
2026-05-07 21:11 34.93140 29.41166 32152 ft 367 kts 316°
2026-05-07 21:11 34.98487 29.34477 32153 ft 367 kts 316°
2026-05-07 21:12 35.02420 29.30549 32155 ft 365 kts 323°
2026-05-07 21:12 35.06506 29.26858 32152 ft 365 kts 323°
2026-05-07 21:13 35.10590 29.23152 32146 ft 365 kts 323°
2026-05-07 21:13 35.14662 29.19439 32155 ft 365 kts 323°
2026-05-07 21:14 35.18712 29.15735 32162 ft 366 kts 323°
2026-05-07 21:14 35.22785 29.12005 32154 ft 365 kts 323°
2026-05-07 21:15 35.26855 29.08271 32154 ft 365 kts 323°
2026-05-07 21:15 35.30920 29.04537 32154 ft 364 kts 323°
2026-05-07 21:16 35.34974 29.00808 32152 ft 364 kts 323°
2026-05-07 21:16 35.39019 28.97084 32152 ft 364 kts 323°
2026-05-07 21:17 35.43061 28.93357 32143 ft 364 kts 323°
2026-05-07 21:17 35.47077 28.89649 32161 ft 364 kts 323°
2026-05-07 21:18 35.51128 28.85903 32155 ft 365 kts 323°
2026-05-07 21:18 35.55183 28.82149 32156 ft 365 kts 323°
2026-05-07 21:19 35.59236 28.78393 32152 ft 365 kts 323°
2026-05-07 21:19 35.63294 28.74626 32153 ft 365 kts 323°
2026-05-07 21:20 35.67355 28.70853 32153 ft 365 kts 323°
2026-05-07 21:20 35.71384 28.67103 32152 ft 365 kts 323°
2026-05-07 21:21 35.75443 28.63321 32160 ft 365 kts 322°
2026-05-07 21:21 35.79495 28.59541 32152 ft 366 kts 322°
2026-05-07 21:22 35.83553 28.55750 32153 ft 366 kts 322°
2026-05-07 21:22 35.87607 28.51958 32152 ft 366 kts 322°
2026-05-07 21:23 35.91655 28.48166 32152 ft 365 kts 322°
2026-05-07 21:23 35.95681 28.44390 32152 ft 365 kts 322°
2026-05-07 21:24 35.99725 28.40592 32152 ft 365 kts 322°
2026-05-07 21:24 36.03767 28.36791 32147 ft 365 kts 322°
2026-05-07 21:25 36.07814 28.32980 32151 ft 366 kts 322°
2026-05-07 21:25 36.11864 28.29162 32153 ft 366 kts 322°
2026-05-07 21:26 36.15922 28.25330 32150 ft 367 kts 322°
2026-05-07 21:26 36.19978 28.21495 32150 ft 367 kts 322°
2026-05-07 21:27 36.24013 28.17675 32149 ft 368 kts 322°
2026-05-07 21:27 36.28078 28.13821 32149 ft 368 kts 322°
2026-05-07 21:28 36.32143 28.09962 32144 ft 368 kts 322°
2026-05-07 21:28 36.36057 28.05904 32122 ft 368 kts 317°
2026-05-07 21:29 36.39809 28.01561 32125 ft 369 kts 316°
2026-05-07 21:29 36.43559 27.97197 32132 ft 369 kts 316°
2026-05-07 21:30 36.47321 27.92831 32135 ft 369 kts 317°
2026-05-07 21:30 36.51083 27.88471 32139 ft 370 kts 317°
2026-05-07 21:31 36.54823 27.84133 32134 ft 370 kts 316°
2026-05-07 21:31 36.58579 27.79772 32156 ft 369 kts 316°
2026-05-07 21:32 36.62330 27.75411 32149 ft 369 kts 316°
2026-05-07 21:32 36.66086 27.71038 32163 ft 369 kts 317°
2026-05-07 21:33 36.69842 27.66659 32151 ft 370 kts 317°
2026-05-07 21:33 36.73590 27.62283 32161 ft 369 kts 317°
2026-05-07 21:34 36.77336 27.57903 32162 ft 369 kts 316°
2026-05-07 21:34 36.81055 27.53548 32163 ft 369 kts 316°
2026-05-07 21:35 36.84802 27.49156 32162 ft 369 kts 316°
2026-05-07 21:35 36.88549 27.44757 32149 ft 369 kts 316°
2026-05-07 21:36 36.92291 27.40356 32162 ft 370 kts 316°
2026-05-07 21:36 36.96044 27.35938 32168 ft 371 kts 316°
2026-05-07 21:37 36.99780 27.31532 32154 ft 372 kts 316°
2026-05-07 21:37 37.03548 27.27082 32151 ft 373 kts 316°
2026-05-07 21:38 37.07318 27.22625 32168 ft 373 kts 316°
2026-05-07 21:38 37.11098 27.18148 32164 ft 373 kts 316°
2026-05-07 21:39 37.14847 27.13701 32163 ft 373 kts 316°
2026-05-07 21:39 37.18618 27.09222 32164 ft 373 kts 316°
2026-05-07 21:40 37.22385 27.04742 32164 ft 373 kts 316°
2026-05-07 21:40 37.26156 27.00250 32171 ft 373 kts 315°
2026-05-07 21:41 37.29900 26.95784 32168 ft 373 kts 315°
2026-05-07 21:41 37.33663 26.91288 32157 ft 373 kts 315°
2026-05-07 21:42 37.37424 26.86789 32155 ft 373 kts 315°
2026-05-07 21:42 37.41218 26.82330 32164 ft 373 kts 317°